Time;durP1;ratioP1;P1;durP2;ratioP2;P2;SDS_P1;SDS_P2;PMS_P1;PMS_P2;Temp;Humidity;BMP_temperature;BMP_pressure;BME280_temperature;BME280_humidity;BME280_pressure;Samples;Min_cycle;Max_cycle;Signal;HPM_P1;HPM_P2
2022/07/25 00:01:02;;;;;;;;;;;;;;;16.59;57.31;100527.53;5038810;28;1081;-59
2022/07/25 00:03:28;;;;;;;;;;;;;;;16.61;56.85;100514.34;5038965;28;1985;-59
2022/07/25 00:05:53;;;;;;;;;;;;;;;16.54;56.87;100528.38;5039112;28;1049;-59
2022/07/25 00:08:19;;;;;;;;;;;;;;;16.53;57.08;100532.22;5042735;28;1172;-59
2022/07/25 00:10:44;;;;;;;;;;;;;;;16.53;56.79;100539.63;5039305;28;950;-58
2022/07/25 00:13:09;;;;;;;;;;;;;;;16.49;56.84;100527.56;5038386;28;1072;-58
2022/07/25 00:15:35;;;;;;;;;;;;;;;16.47;56.69;100546.25;5038699;28;1068;-58
2022/07/25 00:18:00;;;;;;;;;;;;;;;16.43;56.78;100541.28;5039018;28;1128;-58
2022/07/25 00:20:26;;;;;;;;;;;;;;;16.43;56.72;100535.81;5043359;28;2602;-58
2022/07/25 00:22:51;;;;;;;;;;;;;;;16.40;56.91;100535.56;5038725;28;1905;-58
2022/07/25 00:25:17;;;;;;;;;;;;;;;16.36;56.80;100546.25;5038460;28;1057;-58
2022/07/25 00:27:42;;;;;;;;;;;;;;;16.38;56.84;100544.06;5038867;28;1167;-58
2022/07/25 00:30:08;;;;;;;;;;;;;;;16.36;56.84;100539.97;5038610;28;994;-58
2022/07/25 00:32:33;;;;;;;;;;;;;;;16.35;56.76;100533.63;5041894;28;1029;-59
2022/07/25 00:34:59;;;;;;;;;;;;;;;16.32;56.94;100545.16;5041053;28;1009;-58
2022/07/25 00:37:24;;;;;;;;;;;;;;;16.35;56.70;100552.84;5038041;28;1092;-59
2022/07/25 00:39:50;;;;;;;;;;;;;;;16.33;56.81;100551.50;5038740;28;1009;-59
2022/07/25 00:42:15;;;;;;;;;;;;;;;16.32;56.44;100561.63;5038406;28;1006;-59
2022/07/25 00:44:41;;;;;;;;;;;;;;;17.32;57.94;100586.59;5040588;28;1984;-59
2022/07/25 00:47:06;;;;;;;;;;;;;;;17.15;58.29;100616.34;5038251;28;1084;-59
2022/07/25 00:49:32;;;;;;;;;;;;;;;16.93;58.16;100664.22;5037797;28;2397;-58
2022/07/25 00:51:57;;;;;;;;;;;;;;;16.72;58.28;100688.13;5038326;28;1022;-58
2022/07/25 00:54:22;;;;;;;;;;;;;;;16.68;57.67;100698.81;5044374;28;1328;-58
2022/07/25 00:56:48;;;;;;;;;;;;;;;16.64;57.54;100672.22;5038226;28;1018;-58
2022/07/25 00:59:15;;;;;;;;;;;;;;;16.60;57.27;100664.50;5037830;28;994;-58
2022/07/25 01:01:41;;;;;;;;;;;;;;;16.57;57.23;100670.56;5037474;28;1204;-58
2022/07/25 01:04:07;;;;;;;;;;;;;;;16.55;57.18;100697.47;5037849;28;1914;-58
2022/07/25 01:06:33;;;;;;;;;;;;;;;16.51;57.18;100701.84;5037557;28;1153;-57
2022/07/25 01:08:58;;;;;;;;;;;;;;;16.54;57.07;100678.53;5038106;28;1168;-58
2022/07/25 01:11:24;;;;;;;;;;;;;;;16.49;56.92;100645.59;5037789;28;1164;-58
2022/07/25 01:13:49;;;;;;;;;;;;;;;16.47;56.90;100639.56;5037428;28;895;-58
2022/07/25 01:16:15;;;;;;;;;;;;;;;16.44;56.91;100660.16;5037910;28;1037;-58
2022/07/25 01:18:40;;;;;;;;;;;;;;;16.44;56.69;100679.34;5038192;28;2784;-58
2022/07/25 01:21:06;;;;;;;;;;;;;;;16.41;56.68;100674.41;5038529;28;1030;-59
2022/07/25 01:23:31;;;;;;;;;;;;;;;17.35;58.06;100657.47;5037522;28;1906;-58
2022/07/25 01:25:57;;;;;;;;;;;;;;;17.07;58.58;100657.03;5037595;28;1163;-59
2022/07/25 01:28:22;;;;;;;;;;;;;;;16.90;58.28;100662.00;5037531;28;1041;-58
2022/07/25 01:30:48;;;;;;;;;;;;;;;16.79;57.94;100660.34;5037371;28;1053;-58
2022/07/25 01:33:16;;;;;;;;;;;;;;;16.70;57.85;100652.69;5042059;28;974;-57
2022/07/25 01:35:42;;;;;;;;;;;;;;;16.68;57.63;100652.16;5020987;28;1073;-58
2022/07/25 01:38:08;;;;;;;;;;;;;;;16.63;57.64;100663.13;5039471;28;939;-58
2022/07/25 01:40:33;;;;;;;;;;;;;;;16.60;57.38;100636.25;5037812;28;1061;-57
2022/07/25 01:42:58;;;;;;;;;;;;;;;16.57;57.42;100636.78;5037384;28;1946;-59
2022/07/25 01:45:24;;;;;;;;;;;;;;;16.55;57.45;100633.50;5038413;28;1061;-59
2022/07/25 01:47:49;;;;;;;;;;;;;;;16.52;57.29;100625.81;5037818;28;1172;-59
2022/07/25 01:50:15;;;;;;;;;;;;;;;16.51;57.10;100625.00;5039028;28;2654;-59
2022/07/25 01:52:40;;;;;;;;;;;;;;;16.53;57.05;100627.47;5037769;28;1021;-59
2022/07/25 01:55:06;;;;;;;;;;;;;;;16.50;57.02;100608.81;5041600;28;998;-58
2022/07/25 01:57:31;;;;;;;;;;;;;;;16.49;57.15;100609.91;5036959;28;1002;-59
2022/07/25 01:59:57;;;;;;;;;;;;;;;16.49;56.94;100618.13;5036110;28;1172;-59
2022/07/25 02:02:22;;;;;;;;;;;;;;;16.40;57.17;100618.69;5035645;28;982;-59
2022/07/25 02:04:48;;;;;;;;;;;;;;;16.46;56.77;100610.47;5036995;28;1910;-59
2022/07/25 02:07:13;;;;;;;;;;;;;;;16.40;56.89;100604.97;5036382;28;1084;-58
2022/07/25 02:09:40;;;;;;;;;;;;;;;16.41;56.69;100594.81;5036801;28;1101;-59
2022/07/25 02:12:06;;;;;;;;;;;;;;;16.38;56.71;100593.47;5030335;28;1017;-59
2022/07/25 02:14:32;;;;;;;;;;;;;;;16.35;56.87;100610.47;5035971;28;795;-59
2022/07/25 02:16:57;;;;;;;;;;;;;;;16.36;56.77;100592.91;5036445;28;1167;-60
2022/07/25 02:19:22;;;;;;;;;;;;;;;16.32;56.99;100602.78;5037122;28;2598;-58
2022/07/25 02:21:48;;;;;;;;;;;;;;;16.64;57.84;100607.13;5036355;28;1010;-59
2022/07/25 02:24:13;;;;;;;;;;;;;;;17.26;58.03;100593.19;5036716;28;1911;-60
2022/07/25 02:26:39;;;;;;;;;;;;;;;16.90;58.46;100601.59;5036222;28;847;-59
2022/07/25 02:29:04;;;;;;;;;;;;;;;16.75;58.27;100586.78;5036246;28;1022;-59
2022/07/25 02:31:30;;;;;;;;;;;;;;;16.63;57.91;100586.25;5036418;28;1093;-59
2022/07/25 02:33:55;;;;;;;;;;;;;;;16.65;57.45;100578.59;5035919;28;998;-60
2022/07/25 02:36:21;;;;;;;;;;;;;;;16.56;57.50;100569.25;5036506;28;1072;-59
2022/07/25 02:38:46;;;;;;;;;;;;;;;16.56;57.35;100561.03;5033932;28;847;-59
2022/07/25 02:41:11;;;;;;;;;;;;;;;16.56;57.12;100561.03;5037777;28;1167;-59
2022/07/25 02:43:37;;;;;;;;;;;;;;;16.52;57.12;100551.69;5036227;28;1979;-60
2022/07/25 02:46:02;;;;;;;;;;;;;;;16.47;57.13;100549.00;5036072;28;1195;-59
2022/07/25 02:48:28;;;;;;;;;;;;;;;16.42;57.13;100542.41;5036433;28;2543;-59
2022/07/25 02:50:53;;;;;;;;;;;;;;;16.48;56.74;100543.22;5030867;28;974;-60
2022/07/25 02:53:19;;;;;;;;;;;;;;;16.40;56.76;100539.13;5040272;28;1145;-59
2022/07/25 02:55:44;;;;;;;;;;;;;;;16.38;56.80;100544.06;5035852;28;1005;-60
2022/07/25 02:58:10;;;;;;;;;;;;;;;16.36;56.67;100543.50;5039512;28;1179;-60
2022/07/25 03:00:35;;;;;;;;;;;;;;;16.38;56.61;100548.72;5035763;28;1073;-61
2022/07/25 03:03:01;;;;;;;;;;;;;;;17.36;57.88;100534.59;5035708;28;1914;-60
2022/07/25 03:05:26;;;;;;;;;;;;;;;17.08;58.39;100526.81;5036172;28;1119;-58
2022/07/25 03:07:52;;;;;;;;;;;;;;;16.82;58.31;100520.59;5036038;28;1136;-57
2022/07/25 03:10:17;;;;;;;;;;;;;;;16.70;58.29;100526.38;5029463;28;1013;-58
2022/07/25 03:12:43;;;;;;;;;;;;;;;16.72;57.58;100509.66;5044783;28;1009;-57
2022/07/25 03:15:10;;;;;;;;;;;;;;;16.62;57.65;100502.28;5041195;28;1033;-57
2022/07/25 03:17:35;;;;;;;;;;;;;;;16.59;57.30;100502.81;5022545;28;1137;-57
2022/07/25 03:20:01;;;;;;;;;;;;;;;16.63;56.84;100500.34;5045614;28;2449;-58
2022/07/25 03:22:26;;;;;;;;;;;;;;;16.54;57.26;100491.88;5040118;28;954;-57
2022/07/25 03:24:55;;;;;;;;;;;;;;;16.50;57.09;100501.78;5039494;28;1910;-58
2022/07/25 03:27:20;;;;;;;;;;;;;;;16.52;56.93;100488.56;5039701;28;971;-57
2022/07/25 03:29:45;;;;;;;;;;;;;;;16.47;57.18;100494.09;5039649;28;1164;-58
2022/07/25 03:32:11;;;;;;;;;;;;;;;16.43;56.95;100478.16;5042279;28;1056;-58
2022/07/25 03:34:36;;;;;;;;;;;;;;;16.38;57.10;100480.13;5039759;28;1120;-58
2022/07/25 03:37:02;;;;;;;;;;;;;;;16.45;56.87;100468.84;5039582;28;1124;-57
2022/07/25 03:39:27;;;;;;;;;;;;;;;16.41;56.71;100465.81;5039248;28;1211;-57
2022/07/25 03:41:53;;;;;;;;;;;;;;;16.40;56.90;100467.75;5039369;28;1132;-58
2022/07/25 03:44:19;;;;;;;;;;;;;;;16.42;56.45;100467.47;5039340;28;1967;-58
2022/07/25 03:46:45;;;;;;;;;;;;;;;16.91;57.74;100468.66;5039521;28;1069;-59
2022/07/25 03:49:10;;;;;;;;;;;;;;;17.45;58.23;100462.25;5043171;28;2626;-57
2022/07/25 03:51:35;;;;;;;;;;;;;;;16.99;58.58;100451.59;5042500;28;909;-57
2022/07/25 03:54:01;;;;;;;;;;;;;;;16.85;58.30;100454.09;5042251;28;1157;-57
2022/07/25 03:56:27;;;;;;;;;;;;;;;16.75;57.74;100454.97;5044225;28;1125;-57
2022/07/25 03:58:52;;;;;;;;;;;;;;;16.72;57.43;100461.03;5040929;28;982;-58
2022/07/25 04:01:18;;;;;;;;;;;;;;;16.68;57.37;100470.13;5041391;28;1144;-57
2022/07/25 04:03:43;;;;;;;;;;;;;;;16.65;57.09;100493.47;5038938;28;1906;-57
2022/07/25 04:06:09;;;;;;;;;;;;;;;16.59;57.12;100502.81;5045215;28;950;-57
2022/07/25 04:08:34;;;;;;;;;;;;;;;16.55;57.11;100513.56;5050466;28;1112;-57
2022/07/25 04:10:59;;;;;;;;;;;;;;;16.54;57.03;100514.66;5043826;28;1005;-59
2022/07/25 04:13:25;;;;;;;;;;;;;;;16.52;57.01;100510.53;5047191;28;1034;-58
2022/07/25 04:15:50;;;;;;;;;;;;;;;16.51;56.97;100511.63;5042312;28;895;-57
2022/07/25 04:18:16;;;;;;;;;;;;;;;16.49;56.70;100519.34;5043552;28;990;-57
2022/07/25 04:20:41;;;;;;;;;;;;;;;16.45;57.21;100526.47;5042838;28;2234;-57
2022/07/25 04:23:07;;;;;;;;;;;;;;;16.46;57.08;100537.19;5043949;28;1906;-58
2022/07/25 04:25:32;;;;;;;;;;;;;;;16.43;57.08;100533.06;5043401;28;1069;-58
2022/07/25 04:27:57;;;;;;;;;;;;;;;16.40;57.11;100541.84;5043062;28;864;-58
2022/07/25 04:30:23;;;;;;;;;;;;;;;16.38;56.97;100546.81;5041252;28;1065;-58
2022/07/25 04:32:48;;;;;;;;;;;;;;;16.35;57.04;100550.09;5041404;28;1220;-58
2022/07/25 04:35:14;;;;;;;;;;;;;;;16.40;56.89;100552.84;5039181;28;1038;-57
2022/07/25 04:37:39;;;;;;;;;;;;;;;16.36;56.98;100562.72;5042088;28;1164;-57
2022/07/25 04:40:05;;;;;;;;;;;;;;;16.54;57.70;100563.25;5046846;28;911;-57
2022/07/25 04:42:31;;;;;;;;;;;;;;;17.59;58.16;100550.41;5044893;28;1902;-57
2022/07/25 04:44:56;;;;;;;;;;;;;;;17.06;58.56;100556.47;5042342;28;837;-59
2022/07/25 04:47:22;;;;;;;;;;;;;;;16.87;58.35;100563.66;5042532;28;1061;-59
2022/07/25 04:49:48;;;;;;;;;;;;;;;16.82;57.93;100563.72;5044816;28;1931;-58
2022/07/25 04:52:13;;;;;;;;;;;;;;;16.70;57.96;100567.56;5037703;28;857;-58
2022/07/25 04:54:38;;;;;;;;;;;;;;;16.67;57.59;100567.31;5041428;28;1099;-58
2022/07/25 04:57:04;;;;;;;;;;;;;;;16.64;57.14;100571.44;5038939;28;1070;-57
2022/07/25 04:59:30;;;;;;;;;;;;;;;16.63;56.99;100580.78;5038889;28;1140;-57
2022/07/25 05:01:55;;;;;;;;;;;;;;;16.63;56.92;100588.19;5044538;28;942;-57
2022/07/25 05:04:21;;;;;;;;;;;;;;;16.56;57.00;100599.47;5043197;28;1901;-58
2022/07/25 05:06:46;;;;;;;;;;;;;;;16.58;56.81;100597.28;5037796;28;1132;-58
2022/07/25 05:09:12;;;;;;;;;;;;;;;16.51;56.97;100600.31;5044262;28;939;-58
2022/07/25 05:11:37;;;;;;;;;;;;;;;16.49;57.00;100610.72;5038593;28;1045;-58
2022/07/25 05:14:03;;;;;;;;;;;;;;;16.48;56.71;100631.06;5041789;28;1042;-58
2022/07/25 05:16:28;;;;;;;;;;;;;;;17.31;58.07;100620.66;5024584;28;1077;-57
2022/07/25 05:18:53;;;;;;;;;;;;;;;17.31;58.51;100631.66;5039894;28;2024;-58
2022/07/25 05:21:19;;;;;;;;;;;;;;;17.00;58.38;100651.00;5041345;28;944;-58
2022/07/25 05:23:44;;;;;;;;;;;;;;;16.87;58.09;100651.56;5045576;28;1897;-58
2022/07/25 05:26:10;;;;;;;;;;;;;;;16.80;57.72;100657.34;5040275;28;1001;-58
2022/07/25 05:28:35;;;;;;;;;;;;;;;16.75;57.82;100660.91;5041086;28;911;-58
2022/07/25 05:31:01;;;;;;;;;;;;;;;16.71;57.33;100668.06;5039174;28;971;-58
2022/07/25 05:33:26;;;;;;;;;;;;;;;16.70;57.39;100674.66;5040845;28;1108;-57
2022/07/25 05:35:52;;;;;;;;;;;;;;;16.63;57.43;100676.84;5037360;28;994;-57
2022/07/25 05:38:17;;;;;;;;;;;;;;;16.62;57.07;100675.22;5037354;28;1199;-58
2022/07/25 05:40:44;;;;;;;;;;;;;;;16.58;57.24;100676.88;5035503;28;945;-58
2022/07/25 05:43:10;;;;;;;;;;;;;;;16.57;57.08;100670.56;5037986;28;1898;-57
2022/07/25 05:45:35;;;;;;;;;;;;;;;16.55;56.88;100671.91;5037238;28;972;-57
2022/07/25 05:48:01;;;;;;;;;;;;;;;16.55;56.77;100675.50;5036636;28;958;-60
2022/07/25 05:50:26;;;;;;;;;;;;;;;16.97;57.14;100658.97;5041401;28;2167;-61
2022/07/25 05:52:51;;;;;;;;;;;;;;;18.63;52.54;100663.22;5036682;28;2235;-61
2022/07/25 05:55:17;;;;;;;;;;;;;;;14.76;61.44;100651.13;5023613;28;1461;-61
2022/07/25 05:57:42;;;;;;;;;;;;;;;17.83;55.52;100653.38;5040078;28;1133;-61
2022/07/25 06:00:08;;;;;;;;;;;;;;;17.88;54.74;100658.81;5034975;28;1294;-60
2022/07/25 06:02:34;;;;;;;;;;;;;;;15.66;62.83;100659.19;5035922;28;1905;-58
2022/07/25 06:05:00;;;;;;;;;;;;;;;18.67;54.34;100653.25;5038634;28;1017;-60
2022/07/25 06:07:25;;;;;;;;;;;;;;;15.36;61.45;100649.81;5037096;28;1014;-59
2022/07/25 06:09:51;;;;;;;;;;;;;;;17.16;59.24;100650.97;5036738;28;1021;-60
2022/07/25 06:12:16;;;;;;;;;;;;;;;18.70;54.51;100647.16;5047529;28;978;-60
2022/07/25 06:14:42;;;;;;;;;;;;;;;14.94;63.36;100652.59;5043413;28;978;-60
2022/07/25 06:17:07;;;;;;;;;;;;;;;18.36;56.66;100644.47;5044244;28;882;-60
2022/07/25 06:19:33;;;;;;;;;;;;;;;16.10;60.97;100651.63;5038079;28;884;-61
2022/07/25 06:21:58;;;;;;;;;;;;;;;16.79;60.99;100641.97;5039796;28;1065;-61
2022/07/25 06:24:24;;;;;;;;;;;;;;;19.06;54.79;100651.50;5041626;28;1978;-60
2022/07/25 06:26:49;;;;;;;;;;;;;;;14.88;64.23;100640.81;5037983;28;1252;-56
2022/07/25 06:29:15;;;;;;;;;;;;;;;18.32;57.71;100649.72;5037830;28;1116;-58
2022/07/25 06:31:40;;;;;;;;;;;;;;;17.04;59.43;100641.13;5033271;28;1065;-59
2022/07/25 06:34:05;;;;;;;;;;;;;;;16.62;62.81;100642.28;5034966;28;1156;-58
2022/07/25 06:36:31;;;;;;;;;;;;;;;19.31;55.24;100642.09;5034799;28;1184;-58
2022/07/25 06:38:56;;;;;;;;;;;;;;;15.42;62.86;100636.94;5033188;28;1192;-60
2022/07/25 06:41:22;;;;;;;;;;;;;;;16.71;56.98;100626.06;5036223;28;1164;-61
2022/07/25 06:43:47;;;;;;;;;;;;;;;17.17;53.84;100630.63;5042766;28;1959;-61
2022/07/25 06:46:13;;;;;;;;;;;;;;;17.18;52.41;100633.09;5041985;28;954;-59
2022/07/25 06:48:38;;;;;;;;;;;;;;;17.23;52.01;100646.78;5045955;28;1160;-60
2022/07/25 06:51:03;;;;;;;;;;;;;;;17.80;54.34;100641.00;5039999;28;1037;-61
2022/07/25 06:53:29;;;;;;;;;;;;;;;17.43;53.14;100642.31;5042776;28;1125;-58
2022/07/25 06:55:54;;;;;;;;;;;;;;;17.43;52.20;100640.41;5038796;28;1010;-58
2022/07/25 06:58:20;;;;;;;;;;;;;;;17.35;51.53;100638.25;5037383;28;1089;-58
2022/07/25 07:00:45;;;;;;;;;;;;;;;17.24;50.91;100642.94;5037124;28;942;-58
2022/07/25 07:03:11;;;;;;;;;;;;;;;17.40;51.27;100646.47;5036214;28;1977;-56
2022/07/25 07:05:36;;;;;;;;;;;;;;;16.64;56.33;100634.59;5042201;28;982;-59
2022/07/25 07:08:02;;;;;;;;;;;;;;;16.76;59.39;100642.53;5026898;28;1361;-60
2022/07/25 07:10:27;;;;;;;;;;;;;;;19.01;56.54;100652.38;5042961;28;1048;-59
2022/07/25 07:13:03;;;;;;;;;;;;;;;15.34;63.38;100662.94;5041322;28;1077;-59
2022/07/25 07:15:29;;;;;;;;;;;;;;;17.98;59.67;100649.72;5040102;28;993;-60
2022/07/25 07:17:54;;;;;;;;;;;;;;;17.51;59.84;100649.97;5038748;28;1030;-59
2022/07/25 07:20:20;;;;;;;;;;;;;;;15.68;62.70;100654.28;5032290;28;1239;-58
2022/07/25 07:22:45;;;;;;;;;;;;;;;17.04;55.50;100654.84;5037461;28;1989;-59
2022/07/25 07:25:14;;;;;;;;;;;;;;;17.23;53.13;100651.47;5033721;28;1081;-59
2022/07/25 07:27:40;;;;;;;;;;;;;;;17.26;52.05;100660.00;5036967;28;1160;-60
2022/07/25 07:30:05;;;;;;;;;;;;;;;17.30;51.19;100657.50;5035815;28;1042;-59
2022/07/25 07:32:31;;;;;;;;;;;;;;;17.79;52.86;100670.44;5035209;28;1188;-57
2022/07/25 07:34:56;;;;;;;;;;;;;;;15.85;60.14;100664.19;5043255;28;1100;-58
2022/07/25 07:37:22;;;;;;;;;;;;;;;17.13;59.50;100657.03;5038643;28;1057;-56
2022/07/25 07:39:47;;;;;;;;;;;;;;;19.01;57.69;100662.59;5033374;28;1066;-56
2022/07/25 07:42:13;;;;;;;;;;;;;;;15.04;65.94;100660.91;5034708;28;1081;-56
2022/07/25 07:44:38;;;;;;;;;;;;;;;16.95;56.68;100667.50;5017615;28;1993;-56
2022/07/25 07:47:04;;;;;;;;;;;;;;;17.19;53.71;100666.88;5037491;28;1211;-56
2022/07/25 07:49:29;;;;;;;;;;;;;;;17.30;52.52;100660.25;5035804;28;1049;-56
2022/07/25 07:51:55;;;;;;;;;;;;;;;17.27;51.79;100655.31;5035218;28;1310;-55
2022/07/25 07:57:04;;;;;;;;;;;;;;;15.13;60.77;100667.50;5032175;28;986;-57
2022/07/25 07:59:29;;;;;;;;;;;;;;;17.48;58.50;100663.47;5042767;28;1072;-58
2022/07/25 08:01:55;;;;;;;;;;;;;;;18.32;57.42;100671.75;5047441;28;950;-57
2022/07/25 08:04:21;;;;;;;;;;;;;;;15.32;64.80;100665.13;5042715;28;1987;-55
2022/07/25 08:06:46;;;;;;;;;;;;;;;18.51;59.48;100668.28;5045184;28;1132;-55
2022/07/25 08:09:11;;;;;;;;;;;;;;;16.06;63.09;100668.63;5041552;28;1056;-55
2022/07/25 08:11:37;;;;;;;;;;;;;;;17.14;63.13;100664.13;5022767;28;1188;-56
2022/07/25 08:14:04;;;;;;;;;;;;;;;18.78;59.16;100663.06;5038899;28;978;-56
2022/07/25 08:16:29;;;;;;;;;;;;;;;15.16;66.15;100679.84;5039475;28;1188;-56
2022/07/25 08:18:55;;;;;;;;;;;;;;;17.04;57.19;100681.47;5041880;28;985;-56
2022/07/25 08:21:20;;;;;;;;;;;;;;;17.32;54.40;100682.78;5034510;28;1033;-58
2022/07/25 08:23:46;;;;;;;;;;;;;;;17.35;53.04;100682.22;5041102;28;1913;-57
2022/07/25 08:26:13;;;;;;;;;;;;;;;17.28;52.19;100676.19;5039531;28;1001;-57
2022/07/25 08:28:39;;;;;;;;;;;;;;;17.35;51.45;100684.97;5038082;28;998;-57
2022/07/25 08:31:04;;;;;;;;;;;;;;;17.36;50.71;100694.00;5050147;28;938;-57
2022/07/25 08:33:30;;;;;;;;;;;;;;;17.35;50.58;100686.88;5045110;28;1002;-57
2022/07/25 08:35:57;;;;;;;;;;;;;;;17.36;50.31;100675.63;5047263;28;986;-58
2022/07/25 08:38:23;;;;;;;;;;;;;;;18.12;52.31;100684.56;5043921;28;1014;-57
2022/07/25 08:40:49;;;;;;;;;;;;;;;15.24;61.79;100679.34;5042731;28;1061;-56
2022/07/25 08:43:14;;;;;;;;;;;;;;;17.75;58.06;100688.63;5042693;28;1913;-58
2022/07/25 08:45:47;;;;;;;;;;;;;;;18.39;58.91;100685.19;5040551;28;1049;-57
2022/07/25 08:48:13;;;;;;;;;;;;;;;15.53;64.76;100682.47;5038324;28;974;-55
2022/07/25 08:50:38;;;;;;;;;;;;;;;18.45;60.16;100679.34;5038486;28;1096;-58
2022/07/25 08:53:03;;;;;;;;;;;;;;;15.98;64.82;100687.56;5037783;28;1175;-55
2022/07/25 08:55:29;;;;;;;;;;;;;;;16.48;61.05;100679.63;5044662;28;1101;-57
2022/07/25 08:57:54;;;;;;;;;;;;;;;17.17;55.77;100671.84;5045687;28;1013;-55
2022/07/25 09:00:23;;;;;;;;;;;;;;;17.26;53.81;100675.63;5045769;28;1010;-55
2022/07/25 09:02:52;;;;;;;;;;;;;;;17.30;52.34;100679.47;5037820;28;1899;-56
2022/07/25 09:05:19;;;;;;;;;;;;;;;17.36;51.38;100670.13;5038203;28;994;-57
2022/07/25 09:07:44;;;;;;;;;;;;;;;17.36;50.81;100667.38;5020055;28;1189;-55
2022/07/25 09:10:11;;;;;;;;;;;;;;;18.33;53.86;100673.41;5043353;28;1006;-57
2022/07/25 09:12:37;;;;;;;;;;;;;;;14.94;63.51;100675.34;5039106;28;990;-56
2022/07/25 09:15:02;;;;;;;;;;;;;;;18.33;58.92;100684.41;5039810;28;1021;-57
2022/07/25 09:17:28;;;;;;;;;;;;;;;17.51;61.71;100673.91;5036222;28;1045;-57
2022/07/25 09:19:54;;;;;;;;;;;;;;;15.33;65.73;100680.47;5037566;28;1247;-56
2022/07/25 09:22:20;;;;;;;;;;;;;;;18.20;61.06;100687.81;5037133;28;1238;-56
2022/07/25 09:24:45;;;;;;;;;;;;;;;15.39;65.89;100687.63;5037555;28;1910;-56
2022/07/25 09:27:11;;;;;;;;;;;;;;;16.75;59.40;100685.63;5037554;28;1040;-56
2022/07/25 09:29:37;;;;;;;;;;;;;;;17.36;54.63;100694.00;5036959;28;867;-56
2022/07/25 09:32:12;;;;;;;;;;;;;;;17.36;53.37;100685.78;5037525;28;1005;-56
2022/07/25 09:34:38;;;;;;;;;;;;;;;17.34;52.23;100686.06;5033009;28;982;-56
2022/07/25 09:37:05;;;;;;;;;;;;;;;17.35;51.62;100686.88;5037471;28;1053;-57
2022/07/25 09:39:33;;;;;;;;;;;;;;;17.36;51.26;100689.34;5037391;28;1168;-56
2022/07/25 09:41:59;;;;;;;;;;;;;;;17.31;50.72;100681.13;5034655;28;883;-56
2022/07/25 09:44:29;;;;;;;;;;;;;;;17.35;50.32;100692.38;5021046;28;1938;-56
2022/07/25 09:47:00;;;;;;;;;;;;;;;17.38;49.96;100687.13;5034088;28;1344;-56
2022/07/25 09:49:36;;;;;;;;;;;;;;;17.43;49.84;100673.38;5017393;28;1133;-56
2022/07/25 09:52:02;;;;;;;;;;;;;;;17.43;49.58;100684.38;5034371;28;1009;-56
2022/07/25 09:54:29;;;;;;;;;;;;;;;17.42;49.41;100668.97;5011025;28;1223;-54
2022/07/25 09:56:54;;;;;;;;;;;;;;;17.41;49.00;100681.06;5021420;28;925;-55
2022/07/25 09:59:19;;;;;;;;;;;;;;;17.29;49.16;100672.31;5014378;28;1030;-56
2022/07/25 10:01:47;;;;;;;;;;;;;;;18.13;51.26;100672.44;5021490;28;997;-57
2022/07/25 10:04:21;;;;;;;;;;;;;;;15.54;60.20;100683.28;5024268;28;1910;-58
2022/07/25 10:07:03;;;;;;;;;;;;;;;18.70;55.81;100674.72;5018652;28;872;-59
2022/07/25 10:09:28;;;;;;;;;;;;;;;15.67;62.70;100677.31;5017761;28;978;-56
2022/07/25 10:12:03;;;;;;;;;;;;;;;17.73;60.31;100670.75;5016814;28;1108;-56
2022/07/25 10:14:29;;;;;;;;;;;;;;;18.11;59.23;100669.16;5017077;28;946;-51
2022/07/25 10:16:55;;;;;;;;;;;;;;;15.21;65.80;100677.94;5017117;28;969;-56
2022/07/25 10:19:41;;;;;;;;;;;;;;;17.00;56.57;100669.41;5021343;28;1010;-55
2022/07/25 10:22:07;;;;;;;;;;;;;;;17.26;53.55;100659.16;5012671;28;1288;-57
2022/07/25 10:24:33;;;;;;;;;;;;;;;17.40;52.42;100653.88;5019829;28;1917;-56
2022/07/25 10:27:04;;;;;;;;;;;;;;;17.43;51.10;100656.88;5017023;28;1061;-56
2022/07/25 10:29:33;;;;;;;;;;;;;;;17.38;50.44;100648.66;5017806;28;1207;-56
2022/07/25 10:32:04;;;;;;;;;;;;;;;17.41;50.12;100639.84;5012854;28;1291;-58
2022/07/25 10:34:30;;;;;;;;;;;;;;;17.40;49.87;100640.97;5017533;28;1250;-57
2022/07/25 10:36:56;;;;;;;;;;;;;;;17.45;49.43;100640.91;5017250;28;1069;-55
2022/07/25 10:39:22;;;;;;;;;;;;;;;17.47;49.14;100635.13;5015931;28;1485;-57
2022/07/25 10:41:49;;;;;;;;;;;;;;;17.40;49.42;100635.47;5018850;28;1049;-55
2022/07/25 10:44:14;;;;;;;;;;;;;;;17.45;48.98;100631.88;5011434;28;1981;-57
2022/07/25 10:46:42;;;;;;;;;;;;;;;17.40;49.08;100626.38;5024448;28;1184;-56
2022/07/25 10:49:08;;;;;;;;;;;;;;;17.51;48.62;100629.91;5020121;28;1029;-55
2022/07/25 10:51:34;;;;;;;;;;;;;;;17.44;48.68;100630.22;5020281;28;1211;-55
2022/07/25 10:53:59;;;;;;;;;;;;;;;17.36;48.93;100623.41;5023516;28;969;-56
2022/07/25 10:56:26;;;;;;;;;;;;;;;17.36;48.80;100612.41;5038168;28;1085;-57
2022/07/25 10:58:52;;;;;;;;;;;;;;;17.37;48.41;100610.47;5036219;28;1060;-56
2022/07/25 11:01:20;;;;;;;;;;;;;;;17.46;48.48;100606.03;5033079;28;1171;-56
2022/07/25 11:03:45;;;;;;;;;;;;;;;18.27;50.02;100613.97;5032342;28;1976;-56
2022/07/25 11:06:14;;;;;;;;;;;;;;;14.91;59.66;100606.59;5037780;28;989;-58
2022/07/25 11:08:40;;;;;;;;;;;;;;;18.46;54.77;100612.16;5035297;28;958;-59
2022/07/25 11:11:05;;;;;;;;;;;;;;;17.30;59.01;100598.97;5023312;28;986;-57
2022/07/25 11:13:35;;;;;;;;;;;;;;;15.68;61.88;100613.16;5039887;28;927;-56
2022/07/25 11:16:00;;;;;;;;;;;;;;;17.21;54.17;100605.03;5038796;28;1014;-57
2022/07/25 11:18:29;;;;;;;;;;;;;;;17.44;52.31;100605.47;5037607;28;965;-57
2022/07/25 11:20:59;;;;;;;;;;;;;;;17.49;51.27;100593.63;5035912;28;1108;-56
2022/07/25 11:23:24;;;;;;;;;;;;;;;17.40;50.80;100605.25;5035203;28;1913;-58
2022/07/25 11:25:50;;;;;;;;;;;;;;;17.42;50.25;100603.00;5034012;28;1165;-55
2022/07/25 11:28:15;;;;;;;;;;;;;;;17.44;49.69;100605.47;5035463;28;1140;-56
2022/07/25 11:30:41;;;;;;;;;;;;;;;17.48;49.46;100594.75;5032080;28;1195;-60
2022/07/25 11:33:06;;;;;;;;;;;;;;;17.48;49.37;100601.06;5035456;28;1227;-56
2022/07/25 11:35:31;;;;;;;;;;;;;;;17.49;49.35;100601.88;5038473;28;1037;-57
2022/07/25 11:37:58;;;;;;;;;;;;;;;17.44;49.09;100598.03;5045410;28;1029;-57
2022/07/25 11:40:24;;;;;;;;;;;;;;;17.50;48.90;100593.38;5046266;28;982;-56
2022/07/25 11:42:51;;;;;;;;;;;;;;;16.62;55.44;100603.84;5038525;28;1991;-57
2022/07/25 11:45:20;;;;;;;;;;;;;;;16.84;57.50;100594.44;5041392;28;1163;-57
2022/07/25 11:47:47;;;;;;;;;;;;;;;19.10;55.28;100597.44;5040263;28;1010;-60
2022/07/25 11:50:16;;;;;;;;;;;;;;;15.50;63.27;100573.41;5039231;28;1113;-57
2022/07/25 11:52:41;;;;;;;;;;;;;;;16.76;57.36;100571.97;5040388;28;1057;-57
2022/07/25 11:55:07;;;;;;;;;;;;;;;17.38;53.24;100571.69;5039923;28;1002;-56
2022/07/25 11:57:34;;;;;;;;;;;;;;;17.43;51.74;100573.59;5039757;28;1113;-56
2022/07/25 12:00:01;;;;;;;;;;;;;;;17.45;51.04;100576.88;5045254;28;1065;-56
2022/07/25 12:02:36;;;;;;;;;;;;;;;17.50;50.40;100576.03;5046825;28;946;-56
2022/07/25 12:05:03;;;;;;;;;;;;;;;17.51;49.88;100574.94;5046205;28;1964;-55
2022/07/25 12:07:37;;;;;;;;;;;;;;;17.47;49.48;100580.16;5043817;28;863;-55
2022/07/25 12:10:03;;;;;;;;;;;;;;;17.42;49.20;100582.97;5044633;28;1009;-57
2022/07/25 12:12:40;;;;;;;;;;;;;;;17.47;49.08;100580.16;5041557;28;1025;-53
2022/07/25 12:15:05;;;;;;;;;;;;;;;17.43;48.82;100582.69;5039777;28;986;-55
2022/07/25 12:17:31;;;;;;;;;;;;;;;17.48;48.53;100589.25;5040170;28;970;-56
2022/07/25 12:19:56;;;;;;;;;;;;;;;17.34;48.85;100589.88;5038681;28;979;-56
2022/07/25 12:22:21;;;;;;;;;;;;;;;17.71;53.02;100574.81;5044299;28;994;-56
2022/07/25 12:24:47;;;;;;;;;;;;;;;15.96;58.75;100585.53;5041892;28;1905;-55
2022/07/25 12:27:12;;;;;;;;;;;;;;;18.94;57.29;100583.84;5039204;28;1006;-56
2022/07/25 12:29:38;;;;;;;;;;;;;;;16.53;64.46;100586.28;5041107;28;1041;-56
2022/07/25 12:32:03;;;;;;;;;;;;;;;14.87;65.35;100587.13;5042008;28;1223;-56
2022/07/25 12:34:29;;;;;;;;;;;;;;;16.67;62.43;100590.09;5039650;28;1272;-56
2022/07/25 12:36:55;;;;;;;;;;;;;;;17.52;57.81;100582.06;5039583;28;1145;-56
2022/07/25 12:39:20;;;;;;;;;;;;;;;14.79;64.91;100572.06;5034300;28;1494;-59
2022/07/25 12:41:45;;;;;;;;;;;;;;;17.88;60.17;100568.03;5044645;28;1148;-59
2022/07/25 12:44:11;;;;;;;;;;;;;;;16.30;60.19;100569.31;5040884;28;1977;-60